sensor_id;sensor_type;location;lat;lon;timestamp;P1;durP1;ratioP1;P2;durP2;ratioP2
23474;SDS011;11910;52.086;21.066;2023-01-15T00:00:59;22.35;;;12.40;;
23474;SDS011;11910;52.086;21.066;2023-01-15T00:03:25;21.45;;;12.18;;
23474;SDS011;11910;52.086;21.066;2023-01-15T00:05:51;20.30;;;12.65;;
23474;SDS011;11910;52.086;21.066;2023-01-15T00:08:17;21.00;;;12.70;;
23474;SDS011;11910;52.086;21.066;2023-01-15T00:10:42;17.67;;;11.25;;
23474;SDS011;11910;52.086;21.066;2023-01-15T00:13:08;21.58;;;12.45;;
23474;SDS011;11910;52.086;21.066;2023-01-15T00:15:34;18.80;;;12.30;;
23474;SDS011;11910;52.086;21.066;2023-01-15T00:18:00;18.33;;;11.73;;
23474;SDS011;11910;52.086;21.066;2023-01-15T00:20:25;19.38;;;11.95;;
23474;SDS011;11910;52.086;21.066;2023-01-15T00:22:51;18.73;;;11.60;;
23474;SDS011;11910;52.086;21.066;2023-01-15T00:25:17;17.50;;;11.05;;
23474;SDS011;11910;52.086;21.066;2023-01-15T00:28:01;19.02;;;11.75;;
23474;SDS011;11910;52.086;21.066;2023-01-15T00:30:27;17.05;;;11.25;;
23474;SDS011;11910;52.086;21.066;2023-01-15T00:32:52;15.95;;;11.00;;
23474;SDS011;11910;52.086;21.066;2023-01-15T00:35:19;17.67;;;10.57;;
23474;SDS011;11910;52.086;21.066;2023-01-15T00:37:46;16.27;;;9.98;;
23474;SDS011;11910;52.086;21.066;2023-01-15T00:40:12;16.23;;;10.65;;
23474;SDS011;11910;52.086;21.066;2023-01-15T00:42:39;15.90;;;10.20;;
23474;SDS011;11910;52.086;21.066;2023-01-15T00:45:05;15.65;;;10.15;;
23474;SDS011;11910;52.086;21.066;2023-01-15T00:47:40;17.48;;;10.20;;
23474;SDS011;11910;52.086;21.066;2023-01-15T00:50:09;16.73;;;10.30;;
23474;SDS011;11910;52.086;21.066;2023-01-15T00:52:37;15.05;;;9.05;;
23474;SDS011;11910;52.086;21.066;2023-01-15T00:55:03;15.25;;;9.70;;
23474;SDS011;11910;52.086;21.066;2023-01-15T00:57:30;17.52;;;9.52;;
23474;SDS011;11910;52.086;21.066;2023-01-15T00:59:55;14.38;;;9.18;;
23474;SDS011;11910;52.086;21.066;2023-01-15T01:02:21;14.02;;;9.35;;
23474;SDS011;11910;52.086;21.066;2023-01-15T01:04:47;13.05;;;8.82;;
23474;SDS011;11910;52.086;21.066;2023-01-15T01:07:12;14.55;;;9.98;;
23474;SDS011;11910;52.086;21.066;2023-01-15T01:09:38;17.38;;;9.75;;
23474;SDS011;11910;52.086;21.066;2023-01-15T01:12:04;14.05;;;8.93;;
23474;SDS011;11910;52.086;21.066;2023-01-15T01:14:30;13.95;;;9.60;;
23474;SDS011;11910;52.086;21.066;2023-01-15T01:16:55;15.07;;;9.20;;
23474;SDS011;11910;52.086;21.066;2023-01-15T01:19:22;12.77;;;9.02;;
23474;SDS011;11910;52.086;21.066;2023-01-15T01:21:48;15.38;;;8.85;;
23474;SDS011;11910;52.086;21.066;2023-01-15T01:24:16;14.30;;;9.32;;
23474;SDS011;11910;52.086;21.066;2023-01-15T01:26:44;14.32;;;9.43;;
23474;SDS011;11910;52.086;21.066;2023-01-15T01:29:10;13.23;;;8.68;;
23474;SDS011;11910;52.086;21.066;2023-01-15T01:31:37;14.07;;;8.68;;
23474;SDS011;11910;52.086;21.066;2023-01-15T01:34:02;15.07;;;9.07;;
23474;SDS011;11910;52.086;21.066;2023-01-15T01:36:29;13.35;;;9.07;;
23474;SDS011;11910;52.086;21.066;2023-01-15T01:38:57;12.80;;;8.25;;
23474;SDS011;11910;52.086;21.066;2023-01-15T01:41:23;12.45;;;8.50;;
23474;SDS011;11910;52.086;21.066;2023-01-15T01:46:48;14.40;;;8.57;;
23474;SDS011;11910;52.086;21.066;2023-01-15T01:49:14;14.27;;;8.35;;
23474;SDS011;11910;52.086;21.066;2023-01-15T01:51:41;15.15;;;9.20;;
23474;SDS011;11910;52.086;21.066;2023-01-15T01:54:12;12.35;;;8.48;;
23474;SDS011;11910;52.086;21.066;2023-01-15T01:56:40;14.07;;;8.73;;
23474;SDS011;11910;52.086;21.066;2023-01-15T01:59:06;12.80;;;8.18;;
23474;SDS011;11910;52.086;21.066;2023-01-15T02:01:33;13.57;;;8.43;;
23474;SDS011;11910;52.086;21.066;2023-01-15T02:03:58;12.70;;;8.57;;
23474;SDS011;11910;52.086;21.066;2023-01-15T02:06:24;14.25;;;8.77;;
23474;SDS011;11910;52.086;21.066;2023-01-15T02:08:51;15.18;;;8.55;;
23474;SDS011;11910;52.086;21.066;2023-01-15T02:11:19;14.43;;;8.80;;
23474;SDS011;11910;52.086;21.066;2023-01-15T02:16:27;14.13;;;8.65;;
23474;SDS011;11910;52.086;21.066;2023-01-15T02:27:22;14.32;;;8.48;;
23474;SDS011;11910;52.086;21.066;2023-01-15T02:32:33;13.63;;;8.90;;
23474;SDS011;11910;52.086;21.066;2023-01-15T02:35:06;13.38;;;8.57;;
23474;SDS011;11910;52.086;21.066;2023-01-15T02:37:40;17.30;;;9.35;;
23474;SDS011;11910;52.086;21.066;2023-01-15T02:40:09;13.93;;;8.80;;
23474;SDS011;11910;52.086;21.066;2023-01-15T02:42:37;15.35;;;9.00;;
23474;SDS011;11910;52.086;21.066;2023-01-15T02:45:05;15.63;;;9.88;;
23474;SDS011;11910;52.086;21.066;2023-01-15T02:47:33;14.40;;;8.88;;
23474;SDS011;11910;52.086;21.066;2023-01-15T02:50:03;14.20;;;9.02;;
23474;SDS011;11910;52.086;21.066;2023-01-15T02:52:34;14.30;;;9.02;;
23474;SDS011;11910;52.086;21.066;2023-01-15T02:55:10;13.93;;;9.32;;
23474;SDS011;11910;52.086;21.066;2023-01-15T02:57:39;15.90;;;9.27;;
23474;SDS011;11910;52.086;21.066;2023-01-15T03:00:08;14.98;;;8.98;;
23474;SDS011;11910;52.086;21.066;2023-01-15T03:02:39;14.48;;;9.05;;
23474;SDS011;11910;52.086;21.066;2023-01-15T03:05:48;15.38;;;9.07;;
23474;SDS011;11910;52.086;21.066;2023-01-15T03:08:20;14.70;;;9.27;;
23474;SDS011;11910;52.086;21.066;2023-01-15T03:10:49;15.50;;;9.07;;
23474;SDS011;11910;52.086;21.066;2023-01-15T03:13:23;15.32;;;8.85;;
23474;SDS011;11910;52.086;21.066;2023-01-15T03:16:01;14.20;;;8.70;;
23474;SDS011;11910;52.086;21.066;2023-01-15T03:22:18;15.18;;;9.60;;
23474;SDS011;11910;52.086;21.066;2023-01-15T03:24:28;14.70;;;8.80;;
23474;SDS011;11910;52.086;21.066;2023-01-15T03:27:08;14.18;;;8.88;;
23474;SDS011;11910;52.086;21.066;2023-01-15T03:29:36;14.32;;;9.48;;
23474;SDS011;11910;52.086;21.066;2023-01-15T03:32:05;14.65;;;8.85;;
23474;SDS011;11910;52.086;21.066;2023-01-15T03:34:33;13.88;;;8.55;;
23474;SDS011;11910;52.086;21.066;2023-01-15T03:37:04;14.65;;;9.18;;
23474;SDS011;11910;52.086;21.066;2023-01-15T03:39:29;14.63;;;9.00;;
23474;SDS011;11910;52.086;21.066;2023-01-15T03:41:59;14.27;;;8.90;;
23474;SDS011;11910;52.086;21.066;2023-01-15T03:53:04;12.75;;;8.05;;
23474;SDS011;11910;52.086;21.066;2023-01-15T04:01:17;12.20;;;8.05;;
23474;SDS011;11910;52.086;21.066;2023-01-15T04:03:45;13.45;;;8.20;;
23474;SDS011;11910;52.086;21.066;2023-01-15T04:06:13;10.90;;;7.45;;
23474;SDS011;11910;52.086;21.066;2023-01-15T04:08:40;10.50;;;7.20;;
23474;SDS011;11910;52.086;21.066;2023-01-15T04:11:07;11.07;;;7.45;;
23474;SDS011;11910;52.086;21.066;2023-01-15T04:13:33;10.80;;;7.10;;
23474;SDS011;11910;52.086;21.066;2023-01-15T04:15:59;12.35;;;7.40;;
23474;SDS011;11910;52.086;21.066;2023-01-15T04:18:25;11.63;;;7.20;;
23474;SDS011;11910;52.086;21.066;2023-01-15T04:20:51;11.07;;;6.90;;
23474;SDS011;11910;52.086;21.066;2023-01-15T04:23:18;14.48;;;7.72;;
23474;SDS011;11910;52.086;21.066;2023-01-15T04:25:44;11.10;;;6.85;;
23474;SDS011;11910;52.086;21.066;2023-01-15T04:28:09;9.80;;;6.57;;
23474;SDS011;11910;52.086;21.066;2023-01-15T04:30:36;9.60;;;6.40;;
23474;SDS011;11910;52.086;21.066;2023-01-15T04:33:02;10.98;;;6.43;;
23474;SDS011;11910;52.086;21.066;2023-01-15T04:35:29;9.23;;;6.30;;
23474;SDS011;11910;52.086;21.066;2023-01-15T04:37:55;8.90;;;5.75;;
23474;SDS011;11910;52.086;21.066;2023-01-15T04:40:22;9.77;;;6.30;;
23474;SDS011;11910;52.086;21.066;2023-01-15T04:43:10;11.02;;;6.70;;
23474;SDS011;11910;52.086;21.066;2023-01-15T04:45:55;8.30;;;5.55;;
23474;SDS011;11910;52.086;21.066;2023-01-15T04:48:20;9.63;;;6.20;;
23474;SDS011;11910;52.086;21.066;2023-01-15T04:50:46;9.07;;;5.30;;
23474;SDS011;11910;52.086;21.066;2023-01-15T04:53:12;8.02;;;5.85;;
23474;SDS011;11910;52.086;21.066;2023-01-15T04:55:37;7.55;;;5.35;;
23474;SDS011;11910;52.086;21.066;2023-01-15T04:58:03;7.35;;;5.40;;
23474;SDS011;11910;52.086;21.066;2023-01-15T05:00:29;7.63;;;4.85;;
23474;SDS011;11910;52.086;21.066;2023-01-15T05:02:54;8.35;;;5.10;;
23474;SDS011;11910;52.086;21.066;2023-01-15T05:05:20;8.13;;;5.18;;
23474;SDS011;11910;52.086;21.066;2023-01-15T05:07:45;6.97;;;4.82;;
23474;SDS011;11910;52.086;21.066;2023-01-15T05:10:11;7.68;;;4.60;;
23474;SDS011;11910;52.086;21.066;2023-01-15T05:12:37;7.05;;;4.63;;
23474;SDS011;11910;52.086;21.066;2023-01-15T05:15:02;7.30;;;4.70;;
23474;SDS011;11910;52.086;21.066;2023-01-15T05:17:28;6.85;;;4.63;;
23474;SDS011;11910;52.086;21.066;2023-01-15T05:19:56;7.07;;;4.47;;
23474;SDS011;11910;52.086;21.066;2023-01-15T05:22:22;6.05;;;4.30;;
23474;SDS011;11910;52.086;21.066;2023-01-15T05:24:47;7.43;;;4.32;;
23474;SDS011;11910;52.086;21.066;2023-01-15T05:27:13;7.13;;;4.00;;
23474;SDS011;11910;52.086;21.066;2023-01-15T05:29:38;5.25;;;3.85;;
23474;SDS011;11910;52.086;21.066;2023-01-15T05:32:04;5.35;;;3.75;;
23474;SDS011;11910;52.086;21.066;2023-01-15T05:34:30;5.65;;;3.72;;
23474;SDS011;11910;52.086;21.066;2023-01-15T05:36:55;5.75;;;3.90;;
23474;SDS011;11910;52.086;21.066;2023-01-15T05:39:22;6.10;;;3.80;;
23474;SDS011;11910;52.086;21.066;2023-01-15T05:41:48;6.03;;;3.97;;
23474;SDS011;11910;52.086;21.066;2023-01-15T05:44:14;5.43;;;3.58;;
23474;SDS011;11910;52.086;21.066;2023-01-15T05:46:44;4.90;;;3.55;;
23474;SDS011;11910;52.086;21.066;2023-01-15T05:49:10;6.05;;;3.50;;
23474;SDS011;11910;52.086;21.066;2023-01-15T05:51:38;6.60;;;3.67;;
23474;SDS011;11910;52.086;21.066;2023-01-15T05:54:04;4.55;;;3.10;;
23474;SDS011;11910;52.086;21.066;2023-01-15T05:56:33;5.35;;;3.28;;
23474;SDS011;11910;52.086;21.066;2023-01-15T05:58:59;4.95;;;3.55;;
23474;SDS011;11910;52.086;21.066;2023-01-15T06:01:25;4.20;;;3.28;;
23474;SDS011;11910;52.086;21.066;2023-01-15T06:03:50;6.50;;;3.60;;
23474;SDS011;11910;52.086;21.066;2023-01-15T06:06:17;5.95;;;3.10;;
23474;SDS011;11910;52.086;21.066;2023-01-15T06:08:43;4.95;;;3.30;;
23474;SDS011;11910;52.086;21.066;2023-01-15T06:11:10;4.25;;;3.28;;
23474;SDS011;11910;52.086;21.066;2023-01-15T06:13:36;5.07;;;3.10;;
23474;SDS011;11910;52.086;21.066;2023-01-15T06:16:03;6.47;;;3.35;;
23474;SDS011;11910;52.086;21.066;2023-01-15T06:18:30;6.22;;;3.55;;
23474;SDS011;11910;52.086;21.066;2023-01-15T06:21:01;5.07;;;3.22;;
23474;SDS011;11910;52.086;21.066;2023-01-15T06:23:31;4.63;;;3.08;;
23474;SDS011;11910;52.086;21.066;2023-01-15T06:26:00;5.57;;;3.03;;
23474;SDS011;11910;52.086;21.066;2023-01-15T06:28:27;4.30;;;3.08;;
23474;SDS011;11910;52.086;21.066;2023-01-15T06:30:53;4.55;;;3.05;;
23474;SDS011;11910;52.086;21.066;2023-01-15T06:33:18;5.28;;;3.38;;
23474;SDS011;11910;52.086;21.066;2023-01-15T06:35:44;4.25;;;2.67;;
23474;SDS011;11910;52.086;21.066;2023-01-15T06:38:10;5.15;;;2.92;;
23474;SDS011;11910;52.086;21.066;2023-01-15T06:40:35;5.35;;;3.17;;
23474;SDS011;11910;52.086;21.066;2023-01-15T06:43:01;6.43;;;3.35;;
23474;SDS011;11910;52.086;21.066;2023-01-15T06:45:46;3.67;;;2.65;;
23474;SDS011;11910;52.086;21.066;2023-01-15T06:48:30;4.45;;;2.63;;
23474;SDS011;11910;52.086;21.066;2023-01-15T06:50:57;4.38;;;2.92;;
23474;SDS011;11910;52.086;21.066;2023-01-15T06:53:22;7.22;;;3.13;;
23474;SDS011;11910;52.086;21.066;2023-01-15T06:55:48;3.88;;;2.90;;
23474;SDS011;11910;52.086;21.066;2023-01-15T06:58:13;4.32;;;2.65;;
23474;SDS011;11910;52.086;21.066;2023-01-15T07:00:39;9.10;;;3.40;;
23474;SDS011;11910;52.086;21.066;2023-01-15T07:03:07;3.53;;;2.60;;
23474;SDS011;11910;52.086;21.066;2023-01-15T07:05:33;6.43;;;3.25;;
23474;SDS011;11910;52.086;21.066;2023-01-15T07:07:58;4.72;;;2.67;;
23474;SDS011;11910;52.086;21.066;2023-01-15T07:10:24;4.93;;;3.08;;
23474;SDS011;11910;52.086;21.066;2023-01-15T07:12:50;4.55;;;2.92;;
23474;SDS011;11910;52.086;21.066;2023-01-15T07:15:16;5.05;;;3.10;;
23474;SDS011;11910;52.086;21.066;2023-01-15T07:17:41;11.43;;;3.80;;
23474;SDS011;11910;52.086;21.066;2023-01-15T07:20:07;7.25;;;3.58;;
23474;SDS011;11910;52.086;21.066;2023-01-15T07:22:33;6.38;;;3.42;;
23474;SDS011;11910;52.086;21.066;2023-01-15T07:24:59;8.52;;;3.10;;
23474;SDS011;11910;52.086;21.066;2023-01-15T07:27:25;6.85;;;3.80;;
23474;SDS011;11910;52.086;21.066;2023-01-15T07:29:51;9.10;;;3.40;;
23474;SDS011;11910;52.086;21.066;2023-01-15T07:32:17;5.70;;;3.45;;
23474;SDS011;11910;52.086;21.066;2023-01-15T07:34:43;5.82;;;3.63;;
23474;SDS011;11910;52.086;21.066;2023-01-15T07:37:09;7.07;;;3.83;;
23474;SDS011;11910;52.086;21.066;2023-01-15T07:39:35;6.43;;;3.90;;
23474;SDS011;11910;52.086;21.066;2023-01-15T07:42:00;7.75;;;3.60;;
23474;SDS011;11910;52.086;21.066;2023-01-15T07:44:44;5.57;;;3.72;;
23474;SDS011;11910;52.086;21.066;2023-01-15T07:47:28;7.10;;;3.85;;
23474;SDS011;11910;52.086;21.066;2023-01-15T07:50:14;4.82;;;3.40;;
23474;SDS011;11910;52.086;21.066;2023-01-15T07:52:45;5.60;;;3.80;;
23474;SDS011;11910;52.086;21.066;2023-01-15T07:55:11;4.70;;;3.50;;
23474;SDS011;11910;52.086;21.066;2023-01-15T07:57:37;5.90;;;3.90;;
23474;SDS011;11910;52.086;21.066;2023-01-15T08:00:04;6.72;;;3.13;;
23474;SDS011;11910;52.086;21.066;2023-01-15T08:02:31;5.97;;;3.50;;
23474;SDS011;11910;52.086;21.066;2023-01-15T08:04:57;5.88;;;4.10;;
23474;SDS011;11910;52.086;21.066;2023-01-15T08:07:22;6.78;;;4.18;;
23474;SDS011;11910;52.086;21.066;2023-01-15T08:09:48;9.38;;;5.28;;
23474;SDS011;11910;52.086;21.066;2023-01-15T08:12:14;6.47;;;4.20;;
23474;SDS011;11910;52.086;21.066;2023-01-15T08:14:58;5.72;;;3.97;;
23474;SDS011;11910;52.086;21.066;2023-01-15T08:17:40;6.30;;;3.95;;
23474;SDS011;11910;52.086;21.066;2023-01-15T08:20:16;8.52;;;6.20;;
23474;SDS011;11910;52.086;21.066;2023-01-15T08:22:43;7.70;;;4.28;;
23474;SDS011;11910;52.086;21.066;2023-01-15T08:25:11;6.22;;;4.57;;
23474;SDS011;11910;52.086;21.066;2023-01-15T08:27:38;7.25;;;4.45;;
23474;SDS011;11910;52.086;21.066;2023-01-15T08:30:04;6.22;;;3.55;;
23474;SDS011;11910;52.086;21.066;2023-01-15T08:32:31;8.13;;;3.70;;
23474;SDS011;11910;52.086;21.066;2023-01-15T08:34:57;6.63;;;3.90;;
23474;SDS011;11910;52.086;21.066;2023-01-15T08:37:23;5.55;;;3.53;;
23474;SDS011;11910;52.086;21.066;2023-01-15T08:39:48;4.20;;;3.20;;
23474;SDS011;11910;52.086;21.066;2023-01-15T08:42:16;7.22;;;3.70;;
23474;SDS011;11910;52.086;21.066;2023-01-15T08:44:43;6.45;;;3.60;;
23474;SDS011;11910;52.086;21.066;2023-01-15T08:47:09;10.40;;;3.60;;
23474;SDS011;11910;52.086;21.066;2023-01-15T08:49:35;7.22;;;3.60;;
23474;SDS011;11910;52.086;21.066;2023-01-15T08:52:00;5.85;;;3.90;;
23474;SDS011;11910;52.086;21.066;2023-01-15T08:54:26;4.45;;;2.97;;
23474;SDS011;11910;52.086;21.066;2023-01-15T08:56:51;5.70;;;3.38;;
23474;SDS011;11910;52.086;21.066;2023-01-15T08:59:17;5.60;;;3.63;;
23474;SDS011;11910;52.086;21.066;2023-01-15T09:01:43;6.50;;;3.40;;
23474;SDS011;11910;52.086;21.066;2023-01-15T09:04:12;5.07;;;3.70;;
23474;SDS011;11910;52.086;21.066;2023-01-15T09:06:39;6.28;;;3.40;;
23474;SDS011;11910;52.086;21.066;2023-01-15T09:09:05;4.95;;;3.20;;
23474;SDS011;11910;52.086;21.066;2023-01-15T09:11:30;6.53;;;4.07;;
23474;SDS011;11910;52.086;21.066;2023-01-15T09:13:56;6.50;;;4.10;;
23474;SDS011;11910;52.086;21.066;2023-01-15T09:16:21;6.88;;;3.50;;
23474;SDS011;11910;52.086;21.066;2023-01-15T09:18:47;5.20;;;3.50;;
23474;SDS011;11910;52.086;21.066;2023-01-15T09:21:13;7.07;;;4.15;;
23474;SDS011;11910;52.086;21.066;2023-01-15T09:23:38;9.23;;;4.10;;
23474;SDS011;11910;52.086;21.066;2023-01-15T09:26:05;7.75;;;4.25;;
23474;SDS011;11910;52.086;21.066;2023-01-15T09:28:31;6.90;;;3.85;;
23474;SDS011;11910;52.086;21.066;2023-01-15T09:30:58;5.82;;;4.03;;
23474;SDS011;11910;52.086;21.066;2023-01-15T09:33:24;6.18;;;4.22;;
23474;SDS011;11910;52.086;21.066;2023-01-15T09:35:50;8.13;;;4.10;;
23474;SDS011;11910;52.086;21.066;2023-01-15T09:38:17;7.60;;;4.30;;
23474;SDS011;11910;52.086;21.066;2023-01-15T09:46:15;10.98;;;6.38;;
23474;SDS011;11910;52.086;21.066;2023-01-15T09:51:57;14.13;;;6.45;;
23474;SDS011;11910;52.086;21.066;2023-01-15T09:54:47;18.63;;;5.80;;
23474;SDS011;11910;52.086;21.066;2023-01-15T09:57:24;9.38;;;5.10;;
23474;SDS011;11910;52.086;21.066;2023-01-15T09:59:53;8.40;;;4.93;;
23474;SDS011;11910;52.086;21.066;2023-01-15T10:02:34;10.10;;;5.07;;
23474;SDS011;11910;52.086;21.066;2023-01-15T10:05:14;10.18;;;4.93;;
23474;SDS011;11910;52.086;21.066;2023-01-15T10:10:30;12.77;;;5.90;;
23474;SDS011;11910;52.086;21.066;2023-01-15T10:13:01;12.57;;;5.73;;
23474;SDS011;11910;52.086;21.066;2023-01-15T10:15:41;10.07;;;5.93;;
23474;SDS011;11910;52.086;21.066;2023-01-15T10:18:12;9.45;;;6.43;;
23474;SDS011;11910;52.086;21.066;2023-01-15T10:20:50;14.38;;;6.85;;
23474;SDS011;11910;52.086;21.066;2023-01-15T10:23:30;11.38;;;6.47;;
23474;SDS011;11910;52.086;21.066;2023-01-15T10:28:30;9.23;;;6.20;;
23474;SDS011;11910;52.086;21.066;2023-01-15T10:31:08;9.40;;;5.65;;
23474;SDS011;11910;52.086;21.066;2023-01-15T10:36:48;14.00;;;7.43;;
23474;SDS011;11910;52.086;21.066;2023-01-15T10:42:16;13.93;;;8.45;;
23474;SDS011;11910;52.086;21.066;2023-01-15T10:45:16;14.18;;;7.20;;
23474;SDS011;11910;52.086;21.066;2023-01-15T10:48:05;12.38;;;7.00;;
23474;SDS011;11910;52.086;21.066;2023-01-15T10:50:40;14.05;;;6.43;;
23474;SDS011;11910;52.086;21.066;2023-01-15T10:55:50;12.18;;;7.35;;
23474;SDS011;11910;52.086;21.066;2023-01-15T11:01:14;15.32;;;8.52;;
23474;SDS011;11910;52.086;21.066;2023-01-15T11:03:43;13.90;;;8.38;;
23474;SDS011;11910;52.086;21.066;2023-01-15T11:06:13;12.85;;;8.07;;
23474;SDS011;11910;52.086;21.066;2023-01-15T11:08:42;13.65;;;7.65;;
23474;SDS011;11910;52.086;21.066;2023-01-15T11:14:15;15.70;;;8.90;;
23474;SDS011;11910;52.086;21.066;2023-01-15T11:17:00;16.45;;;8.93;;
23474;SDS011;11910;52.086;21.066;2023-01-15T11:19:38;19.02;;;9.48;;
23474;SDS011;11910;52.086;21.066;2023-01-15T11:22:09;15.15;;;8.90;;
23474;SDS011;11910;52.086;21.066;2023-01-15T11:24:36;17.55;;;9.65;;
23474;SDS011;11910;52.086;21.066;2023-01-15T11:27:12;19.38;;;9.85;;
23474;SDS011;11910;52.086;21.066;2023-01-15T11:29:40;12.77;;;7.80;;
23474;SDS011;11910;52.086;21.066;2023-01-15T11:32:22;15.00;;;8.40;;
23474;SDS011;11910;52.086;21.066;2023-01-15T11:35:00;15.60;;;10.20;;
23474;SDS011;11910;52.086;21.066;2023-01-15T11:37:33;17.48;;;10.60;;
23474;SDS011;11910;52.086;21.066;2023-01-15T11:39:59;15.55;;;9.48;;
23474;SDS011;11910;52.086;21.066;2023-01-15T11:42:36;19.25;;;11.45;;
23474;SDS011;11910;52.086;21.066;2023-01-15T11:45:22;16.85;;;10.63;;
23474;SDS011;11910;52.086;21.066;2023-01-15T11:48:22;17.45;;;10.30;;
23474;SDS011;11910;52.086;21.066;2023-01-15T11:51:10;18.20;;;11.13;;
23474;SDS011;11910;52.086;21.066;2023-01-15T11:53:43;20.42;;;11.82;;
23474;SDS011;11910;52.086;21.066;2023-01-15T11:56:15;20.38;;;12.10;;
23474;SDS011;11910;52.086;21.066;2023-01-15T11:58:45;21.63;;;12.00;;
23474;SDS011;11910;52.086;21.066;2023-01-15T12:01:22;20.15;;;11.07;;
23474;SDS011;11910;52.086;21.066;2023-01-15T12:04:02;18.23;;;10.63;;
23474;SDS011;11910;52.086;21.066;2023-01-15T12:06:33;20.63;;;11.60;;
23474;SDS011;11910;52.086;21.066;2023-01-15T12:11:49;19.33;;;11.95;;
23474;SDS011;11910;52.086;21.066;2023-01-15T12:14:26;20.27;;;12.35;;
23474;SDS011;11910;52.086;21.066;2023-01-15T12:20:13;18.63;;;11.50;;
23474;SDS011;11910;52.086;21.066;2023-01-15T12:28:18;17.40;;;11.05;;
23474;SDS011;11910;52.086;21.066;2023-01-15T12:30:55;19.08;;;10.90;;
23474;SDS011;11910;52.086;21.066;2023-01-15T12:33:45;17.25;;;10.57;;
23474;SDS011;11910;52.086;21.066;2023-01-15T12:38:50;18.30;;;11.13;;
23474;SDS011;11910;52.086;21.066;2023-01-15T12:41:25;17.45;;;10.35;;
23474;SDS011;11910;52.086;21.066;2023-01-15T12:44:19;18.88;;;11.38;;
23474;SDS011;11910;52.086;21.066;2023-01-15T12:47:45;20.45;;;11.23;;
23474;SDS011;11910;52.086;21.066;2023-01-15T12:52:49;14.07;;;9.23;;
23474;SDS011;11910;52.086;21.066;2023-01-15T12:55:29;18.70;;;10.60;;
23474;SDS011;11910;52.086;21.066;2023-01-15T12:57:59;17.42;;;10.48;;
23474;SDS011;11910;52.086;21.066;2023-01-15T13:00:33;17.67;;;10.45;;
23474;SDS011;11910;52.086;21.066;2023-01-15T13:06:04;17.85;;;10.02;;
23474;SDS011;11910;52.086;21.066;2023-01-15T13:11:04;17.17;;;9.90;;
23474;SDS011;11910;52.086;21.066;2023-01-15T13:13:33;14.93;;;9.65;;
23474;SDS011;11910;52.086;21.066;2023-01-15T13:16:12;15.25;;;10.07;;
23474;SDS011;11910;52.086;21.066;2023-01-15T13:21:15;18.25;;;10.10;;
23474;SDS011;11910;52.086;21.066;2023-01-15T13:23:56;15.70;;;10.13;;
23474;SDS011;11910;52.086;21.066;2023-01-15T13:32:31;14.10;;;8.63;;
23474;SDS011;11910;52.086;21.066;2023-01-15T13:35:08;15.23;;;8.32;;
23474;SDS011;11910;52.086;21.066;2023-01-15T13:37:57;15.38;;;8.82;;
23474;SDS011;11910;52.086;21.066;2023-01-15T13:40:30;12.52;;;8.50;;
23474;SDS011;11910;52.086;21.066;2023-01-15T13:43:02;13.00;;;8.35;;
23474;SDS011;11910;52.086;21.066;2023-01-15T13:45:35;14.25;;;8.02;;
23474;SDS011;11910;52.086;21.066;2023-01-15T13:48:13;14.48;;;7.65;;
23474;SDS011;11910;52.086;21.066;2023-01-15T13:50:52;12.15;;;7.50;;
23474;SDS011;11910;52.086;21.066;2023-01-15T13:53:31;12.07;;;8.05;;
23474;SDS011;11910;52.086;21.066;2023-01-15T13:58:33;12.53;;;7.60;;
23474;SDS011;11910;52.086;21.066;2023-01-15T14:04:30;10.07;;;7.05;;
23474;SDS011;11910;52.086;21.066;2023-01-15T14:06:42;9.38;;;6.82;;
23474;SDS011;11910;52.086;21.066;2023-01-15T14:09:13;10.07;;;7.07;;
23474;SDS011;11910;52.086;21.066;2023-01-15T14:23:03;10.20;;;6.40;;
23474;SDS011;11910;52.086;21.066;2023-01-15T14:31:01;11.18;;;7.10;;
23474;SDS011;11910;52.086;21.066;2023-01-15T14:36:16;12.40;;;6.90;;
23474;SDS011;11910;52.086;21.066;2023-01-15T14:38:51;13.98;;;7.45;;
23474;SDS011;11910;52.086;21.066;2023-01-15T14:41:27;12.48;;;7.97;;
23474;SDS011;11910;52.086;21.066;2023-01-15T14:43:58;12.25;;;7.95;;
23474;SDS011;11910;52.086;21.066;2023-01-15T14:46:28;12.98;;;8.48;;
23474;SDS011;11910;52.086;21.066;2023-01-15T14:48:59;14.02;;;8.45;;
23474;SDS011;11910;52.086;21.066;2023-01-15T14:51:30;12.38;;;7.93;;
23474;SDS011;11910;52.086;21.066;2023-01-15T14:54:02;10.88;;;7.05;;
23474;SDS011;11910;52.086;21.066;2023-01-15T14:56:46;11.38;;;7.38;;
23474;SDS011;11910;52.086;21.066;2023-01-15T14:59:16;13.35;;;7.97;;
23474;SDS011;11910;52.086;21.066;2023-01-15T15:01:51;11.43;;;7.20;;
23474;SDS011;11910;52.086;21.066;2023-01-15T15:04:22;11.07;;;6.55;;
23474;SDS011;11910;52.086;21.066;2023-01-15T15:06:56;11.82;;;7.38;;
23474;SDS011;11910;52.086;21.066;2023-01-15T15:26:28;11.82;;;7.47;;
23474;SDS011;11910;52.086;21.066;2023-01-15T15:29:00;12.73;;;8.10;;
23474;SDS011;11910;52.086;21.066;2023-01-15T15:31:26;12.95;;;7.88;;
23474;SDS011;11910;52.086;21.066;2023-01-15T15:33:55;11.35;;;8.00;;
23474;SDS011;11910;52.086;21.066;2023-01-15T15:36:23;13.35;;;8.45;;
23474;SDS011;11910;52.086;21.066;2023-01-15T15:38:52;16.85;;;9.82;;
23474;SDS011;11910;52.086;21.066;2023-01-15T15:41:19;14.10;;;8.75;;
23474;SDS011;11910;52.086;21.066;2023-01-15T15:44:09;15.63;;;9.43;;
23474;SDS011;11910;52.086;21.066;2023-01-15T15:49:58;21.27;;;12.80;;
23474;SDS011;11910;52.086;21.066;2023-01-15T15:52:24;21.73;;;13.10;;
23474;SDS011;11910;52.086;21.066;2023-01-15T15:54:58;16.45;;;10.40;;
23474;SDS011;11910;52.086;21.066;2023-01-15T15:57:28;16.70;;;10.55;;
23474;SDS011;11910;52.086;21.066;2023-01-15T15:59:56;16.42;;;10.85;;
23474;SDS011;11910;52.086;21.066;2023-01-15T16:07:49;15.05;;;10.65;;
23474;SDS011;11910;52.086;21.066;2023-01-15T16:10:31;16.60;;;8.68;;
23474;SDS011;11910;52.086;21.066;2023-01-15T16:12:59;17.58;;;10.07;;
23474;SDS011;11910;52.086;21.066;2023-01-15T16:15:29;18.02;;;10.32;;
23474;SDS011;11910;52.086;21.066;2023-01-15T16:18:00;17.02;;;10.30;;
23474;SDS011;11910;52.086;21.066;2023-01-15T16:20:27;18.40;;;11.57;;
23474;SDS011;11910;52.086;21.066;2023-01-15T16:22:56;15.82;;;10.23;;
23474;SDS011;11910;52.086;21.066;2023-01-15T16:25:28;14.57;;;9.60;;
23474;SDS011;11910;52.086;21.066;2023-01-15T16:28:00;15.63;;;9.63;;
23474;SDS011;11910;52.086;21.066;2023-01-15T16:30:29;13.10;;;7.88;;
23474;SDS011;11910;52.086;21.066;2023-01-15T16:32:59;15.07;;;9.25;;
23474;SDS011;11910;52.086;21.066;2023-01-15T16:35:27;14.23;;;8.52;;
23474;SDS011;11910;52.086;21.066;2023-01-15T16:37:55;16.20;;;9.10;;
23474;SDS011;11910;52.086;21.066;2023-01-15T16:40:26;21.42;;;8.18;;
23474;SDS011;11910;52.086;21.066;2023-01-15T16:43:15;14.55;;;9.27;;
23474;SDS011;11910;52.086;21.066;2023-01-15T16:48:32;20.98;;;8.68;;
23474;SDS011;11910;52.086;21.066;2023-01-15T16:51:22;15.27;;;8.00;;
23474;SDS011;11910;52.086;21.066;2023-01-15T16:53:51;15.40;;;9.30;;
23474;SDS011;11910;52.086;21.066;2023-01-15T16:59:01;12.63;;;8.15;;
23474;SDS011;11910;52.086;21.066;2023-01-15T17:01:32;13.68;;;8.32;;
23474;SDS011;11910;52.086;21.066;2023-01-15T17:04:02;14.55;;;8.48;;
23474;SDS011;11910;52.086;21.066;2023-01-15T17:06:28;11.50;;;8.20;;
23474;SDS011;11910;52.086;21.066;2023-01-15T17:08:54;13.98;;;9.02;;
23474;SDS011;11910;52.086;21.066;2023-01-15T17:11:26;16.92;;;9.80;;